createdAt,value
2017-11-24T00:01:47.557Z,12.90
2017-11-24T00:04:14.301Z,13.13
2017-11-24T00:06:41.041Z,10.37
2017-11-24T00:09:07.784Z,15.63
2017-11-24T00:11:34.518Z,12.73
2017-11-24T00:14:01.256Z,14.17
2017-11-24T00:16:28.012Z,15.37
2017-11-24T00:18:54.787Z,10.47
2017-11-24T00:21:22.286Z,10.17
2017-11-24T00:23:49.025Z,10.77
2017-11-24T00:26:15.776Z,7.53
2017-11-24T00:28:42.507Z,14.10
2017-11-24T00:31:09.269Z,18.33
2017-11-24T00:33:36.034Z,8.13
2017-11-24T00:36:03.553Z,10.97
2017-11-24T00:38:30.472Z,15.20
2017-11-24T00:40:57.225Z,12.27
2017-11-24T00:43:23.961Z,11.07
2017-11-24T00:45:50.717Z,12.97
2017-11-24T00:48:17.460Z,11.60
2017-11-24T00:50:44.193Z,11.77
2017-11-24T00:53:11.750Z,14.13
2017-11-24T00:55:38.660Z,17.33
2017-11-24T00:58:05.425Z,12.50
2017-11-24T01:00:32.151Z,13.87
2017-11-24T01:02:58.889Z,14.60
2017-11-24T01:05:25.616Z,7.37
2017-11-24T01:07:52.369Z,13.57
2017-11-24T01:10:19.097Z,9.80
2017-11-24T01:12:45.845Z,11.90
2017-11-24T01:15:12.586Z,16.83
2017-11-24T01:17:39.335Z,15.97
2017-11-24T01:20:06.069Z,12.43
2017-11-24T01:22:32.841Z,12.20
2017-11-24T01:24:59.599Z,16.07
2017-11-24T01:27:27.860Z,12.50
2017-11-24T01:29:54.617Z,11.20
2017-11-24T01:32:22.133Z,12.30
2017-11-24T01:34:48.900Z,18.27
2017-11-24T01:37:15.616Z,16.37
2017-11-24T01:39:42.384Z,21.00
2017-11-24T01:42:09.896Z,11.47
2017-11-24T01:44:36.668Z,13.10
2017-11-24T01:47:03.410Z,10.07
2017-11-24T01:49:30.142Z,9.10
2017-11-24T01:51:56.886Z,10.47
2017-11-24T01:54:23.625Z,11.77
2017-11-24T01:56:51.162Z,11.13
2017-11-24T01:59:17.926Z,14.10
2017-11-24T02:01:45.440Z,11.93
2017-11-24T02:04:12.176Z,13.70
2017-11-24T02:06:38.925Z,12.20
2017-11-24T02:09:05.705Z,14.60
2017-11-24T02:11:33.227Z,11.30
2017-11-24T02:13:59.964Z,10.87
2017-11-24T02:16:26.765Z,9.27
2017-11-24T02:18:53.507Z,10.97
2017-11-24T02:21:20.338Z,12.50
2017-11-24T02:23:47.072Z,12.00
2017-11-24T02:26:14.583Z,10.00
2017-11-24T02:28:41.310Z,10.00
2017-11-24T02:31:08.065Z,14.57
2017-11-24T02:33:34.914Z,11.80
2017-11-24T02:36:01.639Z,14.63
2017-11-24T02:38:28.387Z,11.03
2017-11-24T02:40:55.137Z,11.33
2017-11-24T02:43:21.878Z,9.77
2017-11-24T02:45:48.614Z,13.10
2017-11-24T02:48:15.590Z,12.63
2017-11-24T02:50:43.089Z,13.47
2017-11-24T02:53:09.873Z,14.67
2017-11-24T02:55:37.389Z,9.97
2017-11-24T02:58:04.109Z,9.63
2017-11-24T03:00:30.855Z,15.30
2017-11-24T03:02:57.589Z,12.33
2017-11-24T03:05:24.352Z,12.00
2017-11-24T03:07:51.065Z,12.63
2017-11-24T03:10:17.836Z,12.50
2017-11-24T03:12:44.572Z,11.43
2017-11-24T03:15:11.319Z,8.40
2017-11-24T03:17:38.129Z,11.80
2017-11-24T03:20:04.853Z,12.13
2017-11-24T03:22:31.632Z,13.67
2017-11-24T03:24:58.392Z,15.23
2017-11-24T03:27:25.879Z,11.57
2017-11-24T03:29:52.670Z,12.93
2017-11-24T03:32:19.413Z,13.63
2017-11-24T03:34:46.160Z,10.67
2017-11-24T03:37:13.693Z,12.20
2017-11-24T03:39:40.439Z,10.40
2017-11-24T03:42:08.696Z,13.07
2017-11-24T03:44:35.437Z,18.03
2017-11-24T03:47:02.167Z,16.93
2017-11-24T03:49:28.900Z,12.67
2017-11-24T03:51:55.643Z,13.47
2017-11-24T03:54:22.381Z,13.03
2017-11-24T03:56:49.118Z,10.23
2017-11-24T03:59:15.876Z,15.33
2017-11-24T04:01:42.607Z,17.17
2017-11-24T04:04:09.352Z,12.87
2017-11-24T04:06:36.125Z,15.97
2017-11-24T04:09:02.924Z,18.80
2017-11-24T04:11:29.658Z,12.17
2017-11-24T04:13:56.392Z,18.50
2017-11-24T04:16:23.139Z,19.57
2017-11-24T04:18:49.865Z,12.30
2017-11-24T04:21:16.615Z,12.20
2017-11-24T04:23:43.350Z,12.43
2017-11-24T04:26:10.079Z,15.00
2017-11-24T04:28:36.797Z,19.03
2017-11-24T04:31:03.529Z,12.70
2017-11-24T04:33:30.455Z,18.43
2017-11-24T04:35:57.188Z,17.90
2017-11-24T04:38:23.937Z,19.27
2017-11-24T04:40:51.423Z,16.40
2017-11-24T04:43:18.193Z,17.37
2017-11-24T04:45:44.926Z,15.83
2017-11-24T04:48:11.678Z,15.90
2017-11-24T04:50:38.427Z,18.03
2017-11-24T04:53:05.132Z,14.73
2017-11-24T04:55:31.902Z,19.10
2017-11-24T04:57:58.633Z,19.37
2017-11-24T05:00:25.380Z,21.43
2017-11-24T05:02:52.115Z,18.93
2017-11-24T05:05:18.873Z,19.40
2017-11-24T05:07:45.602Z,20.50
2017-11-24T05:10:12.333Z,19.03
2017-11-24T05:12:39.088Z,22.47
2017-11-24T05:15:05.837Z,14.40
2017-11-24T05:17:33.348Z,19.77
2017-11-24T05:20:00.151Z,16.83
2017-11-24T05:22:26.925Z,15.37
2017-11-24T05:24:53.642Z,18.77
2017-11-24T05:27:20.427Z,21.50
2017-11-24T05:29:47.241Z,17.47
2017-11-24T05:32:13.996Z,11.53
2017-11-24T05:34:40.741Z,11.77
2017-11-24T05:37:07.526Z,14.37
2017-11-24T05:39:34.256Z,15.70
2017-11-24T05:42:01.753Z,16.73
2017-11-24T05:44:28.782Z,18.37
2017-11-24T05:46:55.556Z,18.30
2017-11-24T05:49:22.371Z,16.90
2017-11-24T05:51:49.114Z,18.23
2017-11-24T05:54:15.880Z,17.50
2017-11-24T05:56:42.620Z,16.57
2017-11-24T05:59:09.373Z,12.00
2017-11-24T06:01:36.179Z,16.67
2017-11-24T06:04:02.989Z,17.40
2017-11-24T06:06:30.486Z,19.43
2017-11-24T06:08:57.241Z,18.07
2017-11-24T06:11:24.022Z,16.10
2017-11-24T06:13:50.733Z,16.17
2017-11-24T06:16:17.472Z,14.53
2017-11-24T06:18:44.213Z,15.73
2017-11-24T06:21:10.947Z,11.77
2017-11-24T06:23:38.605Z,17.37
2017-11-24T06:26:05.353Z,15.37
2017-11-24T06:28:32.878Z,19.53
2017-11-24T06:30:59.609Z,15.13
2017-11-24T06:33:26.344Z,17.80
2017-11-24T06:35:53.102Z,15.27
2017-11-24T06:38:19.830Z,12.87
2017-11-24T06:40:46.556Z,12.60
2017-11-24T06:43:13.418Z,11.67
2017-11-24T06:45:40.159Z,13.30
2017-11-24T06:48:06.889Z,12.27
2017-11-24T06:50:33.660Z,11.03
2017-11-24T06:53:00.414Z,14.87
2017-11-24T06:55:27.909Z,11.47
2017-11-24T06:57:54.674Z,13.20
2017-11-24T07:00:21.432Z,19.87
2017-11-24T07:02:48.937Z,26.87
2017-11-24T07:05:15.697Z,17.37
2017-11-24T07:07:42.432Z,17.53
2017-11-24T07:10:09.159Z,23.77
2017-11-24T07:12:35.907Z,23.17
2017-11-24T07:15:02.658Z,17.17
2017-11-24T07:17:29.399Z,16.70
2017-11-24T07:19:56.118Z,17.00
2017-11-24T07:22:22.864Z,15.53
2017-11-24T07:24:49.609Z,18.33
2017-11-24T07:27:16.345Z,15.67
2017-11-24T07:29:43.172Z,18.83
2017-11-24T07:32:09.914Z,17.20
2017-11-24T07:34:36.693Z,17.73
2017-11-24T07:37:03.431Z,19.50
2017-11-24T07:39:30.176Z,13.00
2017-11-24T07:41:56.924Z,12.47
2017-11-24T07:44:23.669Z,15.63
2017-11-24T07:46:51.241Z,11.73
2017-11-24T07:49:18.762Z,15.17
2017-11-24T07:51:45.539Z,15.97
2017-11-24T07:54:13.057Z,16.63
2017-11-24T07:56:39.777Z,17.57
2017-11-24T07:59:06.537Z,16.57
2017-11-24T08:01:33.317Z,17.27
2017-11-24T08:04:00.041Z,19.13
2017-11-24T08:06:27.547Z,17.70
2017-11-24T08:08:54.284Z,20.53
2017-11-24T08:11:21.038Z,20.13
2017-11-24T08:13:47.787Z,18.90
2017-11-24T08:16:14.517Z,23.80
2017-11-24T08:18:42.026Z,30.20
2017-11-24T08:21:08.781Z,24.87
2017-11-24T08:23:35.537Z,23.67
2017-11-24T08:26:02.281Z,23.43
2017-11-24T08:28:29.048Z,20.07
2017-11-24T08:30:55.773Z,16.10
2017-11-24T08:33:22.550Z,18.47
2017-11-24T08:35:49.292Z,14.43
2017-11-24T08:38:16.033Z,22.63
2017-11-24T08:40:42.781Z,17.50
2017-11-24T08:43:09.534Z,21.67
2017-11-24T08:45:36.257Z,19.47
2017-11-24T08:48:03.029Z,17.90
2017-11-24T08:50:29.812Z,14.97
2017-11-24T08:52:57.309Z,19.27
2017-11-24T08:55:24.040Z,15.93
2017-11-24T08:57:50.970Z,20.23
2017-11-24T09:00:18.461Z,23.63
2017-11-24T09:02:45.252Z,17.77
2017-11-24T09:05:12.769Z,18.87
2017-11-24T09:07:39.507Z,17.97
2017-11-24T09:10:06.260Z,16.17
2017-11-24T09:12:34.500Z,15.57
2017-11-24T09:15:01.280Z,14.07
2017-11-24T09:17:28.017Z,14.50
2017-11-24T09:19:55.535Z,12.60
2017-11-24T09:22:22.414Z,14.00
2017-11-24T09:24:49.146Z,14.00
2017-11-24T09:27:15.903Z,16.97
2017-11-24T09:29:43.402Z,16.53
2017-11-24T09:32:10.149Z,17.87
2017-11-24T09:34:36.893Z,17.50
2017-11-24T09:37:03.657Z,17.77
2017-11-24T09:39:30.389Z,15.10
2017-11-24T09:41:57.157Z,13.97
2017-11-24T09:44:24.822Z,14.47
2017-11-24T09:46:52.364Z,17.57
2017-11-24T09:49:19.096Z,17.23
2017-11-24T09:51:45.828Z,17.53
2017-11-24T09:54:12.585Z,17.03
2017-11-24T09:56:40.096Z,17.43
2017-11-24T09:59:06.841Z,21.53
2017-11-24T10:01:33.588Z,18.93
2017-11-24T10:04:00.343Z,15.63
2017-11-24T10:06:27.074Z,15.97
2017-11-24T10:08:53.829Z,14.23
2017-11-24T10:11:20.735Z,13.20
2017-11-24T10:13:47.449Z,16.37
2017-11-24T10:16:14.176Z,13.13
2017-11-24T10:18:40.931Z,14.50
2017-11-24T10:21:07.685Z,15.00
2017-11-24T10:23:34.605Z,14.03
2017-11-24T10:26:02.117Z,14.20
2017-11-24T10:28:28.856Z,17.27
2017-11-24T10:30:55.601Z,16.80
2017-11-24T10:33:22.344Z,21.23
2017-11-24T10:35:49.179Z,16.67
2017-11-24T10:38:15.933Z,15.20
2017-11-24T10:40:42.760Z,17.03
2017-11-24T10:43:09.499Z,16.30
2017-11-24T10:45:36.276Z,16.43
2017-11-24T10:48:03.786Z,15.57
2017-11-24T10:50:30.545Z,17.27
2017-11-24T10:52:57.306Z,17.40
2017-11-24T10:55:24.807Z,17.70
2017-11-24T10:57:51.541Z,17.93
2017-11-24T11:00:18.303Z,15.17
2017-11-24T11:02:45.108Z,15.57
2017-11-24T11:05:11.841Z,16.00
2017-11-24T11:07:38.587Z,17.37
2017-11-24T11:10:05.317Z,18.30
2017-11-24T11:12:32.102Z,14.47
2017-11-24T11:14:58.816Z,15.70
2017-11-24T11:17:25.701Z,13.00
2017-11-24T11:19:52.445Z,18.70
2017-11-24T11:22:19.981Z,14.80
2017-11-24T11:24:46.808Z,15.90
2017-11-24T11:27:13.639Z,13.93
2017-11-24T11:29:40.369Z,16.83
2017-11-24T11:32:07.349Z,15.47
2017-11-24T11:34:34.102Z,17.30
2017-11-24T11:37:00.891Z,13.43
2017-11-24T11:39:27.886Z,11.43
2017-11-24T11:41:54.722Z,14.10
2017-11-24T11:44:21.474Z,12.90
2017-11-24T11:46:48.219Z,14.43
2017-11-24T11:49:15.725Z,19.00
2017-11-24T11:51:42.550Z,17.03
2017-11-24T11:54:09.270Z,19.30
2017-11-24T11:56:36.001Z,21.47
2017-11-24T11:59:04.743Z,18.50
2017-11-24T12:01:31.493Z,22.23
2017-11-24T12:03:58.221Z,22.13
2017-11-24T12:06:24.969Z,23.13
2017-11-24T12:08:52.487Z,21.67
2017-11-24T12:11:19.252Z,24.33
2017-11-24T12:13:45.989Z,20.17
2017-11-24T12:16:12.755Z,25.10
2017-11-24T12:18:39.501Z,21.93
2017-11-24T12:21:07.011Z,17.63
2017-11-24T12:23:33.752Z,19.80
2017-11-24T12:26:00.676Z,20.80
2017-11-24T12:28:27.531Z,16.03
2017-11-24T12:30:54.303Z,17.67
2017-11-24T12:33:21.034Z,17.07
2017-11-24T12:35:47.785Z,14.00
2017-11-24T12:38:14.512Z,15.30
2017-11-24T12:40:41.257Z,20.23
2017-11-24T12:43:08.015Z,19.00
2017-11-24T12:45:35.520Z,12.93
2017-11-24T12:48:02.269Z,17.10
2017-11-24T12:50:28.992Z,18.53
2017-11-24T12:52:55.745Z,15.40
2017-11-24T12:55:22.500Z,17.90
2017-11-24T12:57:49.248Z,19.07
2017-11-24T13:00:15.976Z,15.53
2017-11-24T13:02:42.780Z,17.83
2017-11-24T13:05:10.260Z,19.47
2017-11-24T13:07:36.999Z,20.80
2017-11-24T13:10:03.759Z,17.73
2017-11-24T13:12:30.501Z,16.97
2017-11-24T13:14:57.228Z,14.33
2017-11-24T13:17:23.992Z,14.23
2017-11-24T13:19:50.742Z,15.27
2017-11-24T13:22:18.270Z,13.73
2017-11-24T13:24:46.504Z,17.10
2017-11-24T13:27:13.316Z,13.53
2017-11-24T13:29:40.937Z,17.80
2017-11-24T13:32:07.701Z,12.83
2017-11-24T13:34:35.214Z,12.17
2017-11-24T13:37:01.958Z,11.93
2017-11-24T13:39:28.703Z,14.77
2017-11-24T13:41:55.437Z,14.10
2017-11-24T13:44:22.189Z,12.93
2017-11-24T13:46:48.921Z,12.70
2017-11-24T13:49:15.768Z,14.67
2017-11-24T13:51:42.523Z,17.10
2017-11-24T13:54:09.284Z,17.03
2017-11-24T13:56:36.850Z,14.90
2017-11-24T13:59:03.585Z,14.80
2017-11-24T14:01:31.924Z,17.00
2017-11-24T14:03:59.624Z,18.33
2017-11-24T14:06:26.358Z,17.30
2017-11-24T14:08:53.106Z,15.70
2017-11-24T14:11:19.834Z,17.40
2017-11-24T14:13:47.373Z,18.27
2017-11-24T14:16:14.092Z,22.63
2017-11-24T14:18:40.833Z,17.67
2017-11-24T14:21:07.584Z,16.73
2017-11-24T14:23:34.342Z,20.47
2017-11-24T14:26:02.090Z,19.47
2017-11-24T14:28:29.618Z,19.00
2017-11-24T14:30:56.357Z,21.03
2017-11-24T14:33:23.087Z,17.93
2017-11-24T14:35:49.874Z,21.90
2017-11-24T14:38:16.592Z,20.93
2017-11-24T14:40:43.374Z,18.93
2017-11-24T14:43:10.149Z,20.03
2017-11-24T14:45:36.936Z,16.07
2017-11-24T14:48:04.464Z,17.60
2017-11-24T14:50:31.207Z,17.43
2017-11-24T14:52:57.952Z,20.27
2017-11-24T14:55:24.670Z,18.60
2017-11-24T14:57:51.472Z,20.73
2017-11-24T15:00:18.932Z,21.73
2017-11-24T15:02:45.689Z,18.63
2017-11-24T15:05:12.425Z,23.13
2017-11-24T15:07:39.336Z,20.00
2017-11-24T15:10:06.098Z,23.13
2017-11-24T15:12:32.845Z,21.30
2017-11-24T15:14:59.600Z,20.60
2017-11-24T15:17:26.350Z,25.00
2017-11-24T15:19:53.099Z,24.83
2017-11-24T15:22:19.873Z,25.50
2017-11-24T15:24:46.633Z,25.97
2017-11-24T15:27:13.383Z,26.33
2017-11-24T15:29:40.145Z,25.30
2017-11-24T15:32:06.871Z,27.63
2017-11-24T15:34:33.627Z,27.10
2017-11-24T15:37:00.482Z,31.17
2017-11-24T15:39:27.224Z,27.00
2017-11-24T15:41:53.949Z,27.43
2017-11-24T15:44:20.703Z,30.70
2017-11-24T15:46:47.422Z,36.33
2017-11-24T15:49:14.195Z,29.07
2017-11-24T15:51:41.709Z,26.30
2017-11-24T15:54:08.466Z,28.00
2017-11-24T15:56:35.204Z,24.30
2017-11-24T15:59:01.990Z,29.23
2017-11-24T16:01:29.538Z,31.40
2017-11-24T16:03:56.234Z,40.83
2017-11-24T16:06:22.997Z,37.27
2017-11-24T16:08:49.742Z,43.93
2017-11-24T16:11:17.232Z,37.87
2017-11-24T16:13:44.058Z,41.40
2017-11-24T16:16:10.792Z,35.93
2017-11-24T16:18:38.309Z,41.47
2017-11-24T16:21:05.016Z,35.63
2017-11-24T16:23:31.781Z,34.17
2017-11-24T16:25:58.541Z,28.63
2017-11-24T16:28:26.067Z,33.63
2017-11-24T16:30:52.833Z,31.33
2017-11-24T16:33:19.581Z,31.73
2017-11-24T16:35:46.340Z,29.23
2017-11-24T16:38:13.816Z,28.23
2017-11-24T16:40:40.592Z,29.53
2017-11-24T16:43:07.312Z,29.93
2017-11-24T16:45:34.138Z,26.30
2017-11-24T16:48:00.865Z,32.33
2017-11-24T16:50:27.746Z,29.50
2017-11-24T16:52:54.514Z,34.13
2017-11-24T16:55:21.245Z,28.10
2017-11-24T16:57:48.162Z,32.07
2017-11-24T17:00:14.918Z,32.97
2017-11-24T17:02:41.649Z,30.87
2017-11-24T17:05:08.384Z,29.43
2017-11-24T17:07:35.163Z,32.53
2017-11-24T17:10:01.912Z,31.43
2017-11-24T17:12:29.429Z,27.47
2017-11-24T17:14:56.157Z,29.77
2017-11-24T17:17:22.904Z,30.90
2017-11-24T17:19:49.643Z,38.07
2017-11-24T17:22:16.527Z,37.90
2017-11-24T17:24:43.244Z,38.53
2017-11-24T17:27:10.253Z,34.23
2017-11-24T17:29:36.957Z,36.10
2017-11-24T17:32:03.706Z,34.03
2017-11-24T17:34:30.645Z,40.23
2017-11-24T17:36:57.382Z,36.80
2017-11-24T17:39:24.109Z,41.10
2017-11-24T17:41:50.941Z,36.83
2017-11-24T17:44:17.655Z,36.27
2017-11-24T17:46:44.411Z,33.47
2017-11-24T17:49:11.154Z,34.27
2017-11-24T17:51:37.950Z,39.23
2017-11-24T17:54:04.672Z,41.23
2017-11-24T17:56:31.455Z,57.30
2017-11-24T17:58:58.170Z,44.03
2017-11-24T18:01:24.936Z,39.20
2017-11-24T18:03:52.433Z,47.63
2017-11-24T18:06:19.157Z,45.57
2017-11-24T18:08:45.964Z,42.03
2017-11-24T18:11:13.023Z,40.97
2017-11-24T18:13:39.754Z,47.73
2017-11-24T18:16:06.542Z,41.60
2017-11-24T18:18:34.039Z,41.80
2017-11-24T18:21:01.053Z,42.80
2017-11-24T18:23:27.840Z,39.20
2017-11-24T18:25:54.695Z,38.93
2017-11-24T18:28:21.464Z,41.57
2017-11-24T18:30:48.215Z,45.73
2017-11-24T18:33:15.778Z,50.60
2017-11-24T18:35:42.616Z,42.67
2017-11-24T18:38:09.356Z,48.53
2017-11-24T18:40:36.091Z,42.93
2017-11-24T18:43:02.852Z,44.23
2017-11-24T18:45:29.609Z,39.33
2017-11-24T18:47:56.352Z,35.80
2017-11-24T18:50:23.114Z,41.60
2017-11-24T18:52:49.850Z,37.60
2017-11-24T18:55:17.390Z,38.77
2017-11-24T18:57:44.134Z,37.57
2017-11-24T19:00:11.686Z,42.43
2017-11-24T19:02:38.404Z,33.40
2017-11-24T19:05:05.159Z,38.60
2017-11-24T19:07:31.878Z,38.63
2017-11-24T19:09:58.668Z,40.63
2017-11-24T19:12:26.157Z,47.10
2017-11-24T19:14:52.919Z,44.30
2017-11-24T19:17:19.690Z,42.93
2017-11-24T19:19:46.515Z,36.77
2017-11-24T19:22:13.272Z,39.97
2017-11-24T19:24:40.783Z,42.33
2017-11-24T19:27:07.527Z,39.93
2017-11-24T19:29:34.272Z,37.30
2017-11-24T19:32:01.020Z,40.23
2017-11-24T19:34:27.764Z,40.53
2017-11-24T19:36:54.562Z,35.87
2017-11-24T19:39:21.326Z,42.23
2017-11-24T19:41:48.115Z,37.37
2017-11-24T19:44:15.623Z,43.87
2017-11-24T19:46:42.418Z,43.10
2017-11-24T19:49:09.196Z,39.90
2017-11-24T19:51:35.944Z,50.53
2017-11-24T19:54:02.709Z,51.43
2017-11-24T19:56:29.490Z,55.17
2017-11-24T19:58:56.253Z,53.70
2017-11-24T20:01:22.999Z,48.23
2017-11-24T20:03:49.797Z,41.43
2017-11-24T20:06:16.586Z,40.63
2017-11-24T20:08:43.484Z,41.73
2017-11-24T20:11:10.276Z,40.03
2017-11-24T20:13:37.016Z,38.33
2017-11-24T20:16:03.789Z,37.57
2017-11-24T20:18:31.312Z,41.93
2017-11-24T20:20:58.065Z,39.90
2017-11-24T20:23:24.809Z,42.17
2017-11-24T20:25:52.341Z,43.50
2017-11-24T20:28:19.191Z,41.33
2017-11-24T20:30:45.921Z,44.67
2017-11-24T20:33:12.675Z,44.10
2017-11-24T20:35:40.259Z,47.07
2017-11-24T20:38:07.742Z,42.87
2017-11-24T20:40:34.501Z,38.73
2017-11-24T20:43:01.253Z,44.20
2017-11-24T20:45:28.020Z,41.43
2017-11-24T20:47:54.787Z,41.97
2017-11-24T20:50:21.531Z,40.43
2017-11-24T20:52:48.317Z,41.50
2017-11-24T20:55:15.069Z,48.40
2017-11-24T20:57:42.636Z,38.27
2017-11-24T21:00:09.702Z,36.80
2017-11-24T21:02:37.275Z,41.67
2017-11-24T21:05:04.010Z,44.40
2017-11-24T21:07:30.772Z,46.20
2017-11-24T21:09:57.534Z,45.77
2017-11-24T21:12:24.255Z,45.43
2017-11-24T21:14:51.973Z,38.87
2017-11-24T21:17:19.448Z,45.67
2017-11-24T21:19:46.229Z,40.20
2017-11-24T21:22:12.972Z,43.10
2017-11-24T21:24:40.097Z,47.37
2017-11-24T21:27:06.978Z,43.43
2017-11-24T21:29:34.522Z,47.20
2017-11-24T21:32:01.243Z,44.70
2017-11-24T21:34:28.026Z,43.23
2017-11-24T21:36:54.793Z,45.53
2017-11-24T21:39:21.543Z,45.33
2017-11-24T21:41:48.277Z,46.37
2017-11-24T21:44:15.080Z,47.73
2017-11-24T21:46:42.627Z,43.33
2017-11-24T21:49:09.417Z,45.23
2017-11-24T21:51:36.187Z,43.70
2017-11-24T21:54:02.923Z,46.97
2017-11-24T21:56:29.680Z,50.87
2017-11-24T21:58:56.426Z,49.30
2017-11-24T22:01:23.967Z,49.63
2017-11-24T22:03:50.699Z,51.40
2017-11-24T22:06:17.888Z,50.67
2017-11-24T22:08:44.654Z,50.37
2017-11-24T22:11:11.427Z,43.37
2017-11-24T22:13:38.288Z,47.13
2017-11-24T22:16:05.884Z,45.37
2017-11-24T22:18:32.646Z,44.53
2017-11-24T22:20:59.382Z,48.53
2017-11-24T22:23:26.172Z,43.30
2017-11-24T22:25:53.689Z,45.77
2017-11-24T22:28:20.417Z,45.70
2017-11-24T22:30:47.168Z,48.83
2017-11-24T22:33:13.962Z,49.17
2017-11-24T22:35:41.452Z,46.23
2017-11-24T22:38:08.231Z,49.80
2017-11-24T22:40:34.977Z,46.73
2017-11-24T22:43:02.528Z,48.50
2017-11-24T22:45:30.075Z,47.10
2017-11-24T22:47:56.803Z,46.50
2017-11-24T22:50:23.824Z,48.60
2017-11-24T22:52:50.553Z,48.93
2017-11-24T22:55:17.325Z,52.50
2017-11-24T22:57:44.127Z,55.20
2017-11-24T23:00:11.643Z,52.13
2017-11-24T23:02:38.394Z,53.83
2017-11-24T23:05:05.867Z,48.13
2017-11-24T23:07:32.622Z,56.67
2017-11-24T23:09:59.395Z,51.17
2017-11-24T23:12:26.184Z,54.27
2017-11-24T23:14:53.665Z,55.17
2017-11-24T23:17:20.413Z,56.43
2017-11-24T23:19:47.154Z,57.23
2017-11-24T23:22:13.918Z,58.87
2017-11-24T23:24:40.812Z,62.03
2017-11-24T23:27:07.540Z,60.27
2017-11-24T23:29:34.345Z,54.37
2017-11-24T23:32:01.069Z,59.20
2017-11-24T23:34:27.809Z,52.53
2017-11-24T23:36:54.568Z,54.17
2017-11-24T23:39:21.539Z,53.40
2017-11-24T23:41:49.067Z,65.87
2017-11-24T23:44:16.086Z,58.97
2017-11-24T23:46:43.280Z,50.57
2017-11-24T23:49:10.782Z,56.70
2017-11-24T23:51:37.588Z,54.40
2017-11-24T23:54:04.336Z,55.57
2017-11-24T23:56:31.068Z,56.13
2017-11-24T23:58:57.796Z,49.13
